createdAt,value
2023-01-12T00:02:11.984Z,5.50
2023-01-12T00:04:40.169Z,5.60
2023-01-12T00:07:09.110Z,5.60
2023-01-12T00:09:37.415Z,5.70
2023-01-12T00:12:07.130Z,5.60
2023-01-12T00:14:35.755Z,5.60
2023-01-12T00:17:04.271Z,5.70
2023-01-12T00:19:33.979Z,5.70
2023-01-12T00:22:08.792Z,5.90
2023-01-12T00:24:38.173Z,5.60
2023-01-12T00:27:08.670Z,5.50
2023-01-12T00:29:37.894Z,5.50
2023-01-12T00:32:07.661Z,5.40
2023-01-12T00:34:37.153Z,5.50
2023-01-12T00:37:05.457Z,5.40
2023-01-12T00:39:33.607Z,5.30
2023-01-12T00:42:19.175Z,5.40
2023-01-12T00:45:04.805Z,5.50
2023-01-12T00:47:33.103Z,5.50
2023-01-12T00:50:02.535Z,5.40
2023-01-12T00:52:31.779Z,5.20
2023-01-12T00:55:00.957Z,5.10
2023-01-12T00:57:29.569Z,5.20
2023-01-12T00:59:59.360Z,4.90
2023-01-12T01:02:28.375Z,4.90
2023-01-12T01:04:56.868Z,4.80
2023-01-12T01:07:26.482Z,4.70
2023-01-12T01:09:54.729Z,4.50
2023-01-12T01:12:22.779Z,4.30
2023-01-12T01:14:50.996Z,4.30
2023-01-12T01:17:19.041Z,4.20
2023-01-12T01:19:48.405Z,4.00
2023-01-12T01:22:16.543Z,3.90
2023-01-12T01:24:46.007Z,3.80
2023-01-12T01:27:14.543Z,3.80
2023-01-12T01:29:42.971Z,3.80
2023-01-12T01:32:11.179Z,3.90
2023-01-12T01:34:39.408Z,4.00
2023-01-12T01:37:07.676Z,4.00
2023-01-12T01:39:36.032Z,3.90
2023-01-12T01:42:05.575Z,3.90
2023-01-12T01:44:55.141Z,3.70
2023-01-12T01:47:31.099Z,3.60
2023-01-12T01:50:03.076Z,3.40
2023-01-12T01:52:34.907Z,3.40
2023-01-12T01:55:08.154Z,3.40
2023-01-12T01:57:43.285Z,3.40
2023-01-12T02:00:13.854Z,3.50
2023-01-12T02:02:43.775Z,3.60
2023-01-12T02:05:14.197Z,3.50
2023-01-12T02:07:42.389Z,3.50
2023-01-12T02:10:11.556Z,3.50
2023-01-12T02:13:00.186Z,3.40
2023-01-12T02:15:49.028Z,3.40
2023-01-12T02:18:24.450Z,3.40
2023-01-12T02:21:01.825Z,3.40
2023-01-12T02:24:20.535Z,3.40
2023-01-12T02:27:21.372Z,3.50
2023-01-12T02:30:27.931Z,3.40
2023-01-12T02:33:08.393Z,3.30
2023-01-12T02:35:45.333Z,3.30
2023-01-12T02:38:25.185Z,3.20
2023-01-12T02:41:00.734Z,3.20
2023-01-12T02:43:30.113Z,3.20
2023-01-12T02:46:04.752Z,3.10
2023-01-12T02:48:39.053Z,3.10
2023-01-12T02:51:12.565Z,3.10
2023-01-12T02:53:44.773Z,3.10
2023-01-12T02:56:17.033Z,3.00
2023-01-12T02:58:48.936Z,3.00
2023-01-12T03:01:19.579Z,3.00
2023-01-12T03:03:50.299Z,2.90
2023-01-12T03:06:19.366Z,2.80
2023-01-12T03:08:49.889Z,2.80
2023-01-12T03:11:19.654Z,2.80
2023-01-12T03:13:51.481Z,2.80
2023-01-12T03:16:23.239Z,2.80
2023-01-12T03:18:57.008Z,2.70
2023-01-12T03:21:30.574Z,2.70
2023-01-12T03:24:04.559Z,2.70
2023-01-12T03:26:35.515Z,2.70
2023-01-12T03:29:08.648Z,2.70
2023-01-12T03:31:37.871Z,2.70
2023-01-12T03:34:08.682Z,2.70
2023-01-12T03:36:53.422Z,2.70
2023-01-12T03:39:28.638Z,2.80
2023-01-12T03:42:02.351Z,2.70
2023-01-12T03:44:37.775Z,2.80
2023-01-12T03:47:13.060Z,2.90
2023-01-12T03:49:47.140Z,3.10
2023-01-12T03:52:16.830Z,3.10
2023-01-12T03:54:48.261Z,3.20
2023-01-12T03:57:16.930Z,3.30
2023-01-12T03:59:45.257Z,3.30
2023-01-12T04:02:14.436Z,3.40
2023-01-12T04:04:43.847Z,3.40
2023-01-12T04:07:11.950Z,3.60
2023-01-12T04:09:39.965Z,3.70
2023-01-12T04:12:14.074Z,3.60
2023-01-12T04:14:46.159Z,3.40
2023-01-12T04:17:17.244Z,3.30
2023-01-12T04:19:46.759Z,3.40
2023-01-12T04:22:34.340Z,3.50
2023-01-12T04:25:02.529Z,3.60
2023-01-12T04:27:30.766Z,3.50
2023-01-12T04:29:58.832Z,3.60
2023-01-12T04:32:26.921Z,3.70
2023-01-12T04:34:56.294Z,3.50
2023-01-12T04:37:24.472Z,3.50
2023-01-12T04:39:52.550Z,3.50
2023-01-12T04:42:37.899Z,3.50
2023-01-12T04:45:06.835Z,3.60
2023-01-12T04:47:35.064Z,3.50
2023-01-12T04:50:05.365Z,3.60
2023-01-12T04:52:33.745Z,3.40
2023-01-12T04:55:01.928Z,3.20
2023-01-12T04:57:30.102Z,3.20
2023-01-12T04:59:58.625Z,3.10
2023-01-12T05:02:26.774Z,3.00
2023-01-12T05:04:54.879Z,2.90
2023-01-12T05:07:24.358Z,2.90
2023-01-12T05:10:09.862Z,2.90
2023-01-12T05:12:37.963Z,3.00
2023-01-12T05:15:07.299Z,3.00
2023-01-12T05:17:35.571Z,2.80
2023-01-12T05:20:03.895Z,2.80
2023-01-12T05:22:33.904Z,2.80
2023-01-12T05:25:02.092Z,2.70
2023-01-12T05:27:30.190Z,2.80
2023-01-12T05:29:59.651Z,2.80
2023-01-12T05:32:28.040Z,2.80
2023-01-12T05:34:56.175Z,2.90
2023-01-12T05:37:24.308Z,2.90
2023-01-12T05:39:53.737Z,2.90
2023-01-12T05:42:39.444Z,2.90
2023-01-12T05:45:08.792Z,2.90
2023-01-12T05:47:36.872Z,3.00
2023-01-12T05:50:06.062Z,2.90
2023-01-12T05:52:34.175Z,2.90
2023-01-12T05:55:03.769Z,2.90
2023-01-12T05:57:32.454Z,2.80
2023-01-12T06:00:00.635Z,3.10
2023-01-12T06:02:28.796Z,3.00
2023-01-12T06:04:57.018Z,3.10
2023-01-12T06:07:25.080Z,3.10
2023-01-12T06:09:53.210Z,3.00
2023-01-12T06:12:40.083Z,2.90
2023-01-12T06:15:09.018Z,2.90
2023-01-12T06:17:37.202Z,2.90
2023-01-12T06:20:06.555Z,2.80
2023-01-12T06:22:34.756Z,2.80
2023-01-12T06:25:02.891Z,2.60
2023-01-12T06:27:35.454Z,2.70
2023-01-12T06:30:03.564Z,2.70
2023-01-12T06:32:33.554Z,2.80
2023-01-12T06:35:14.076Z,2.80
2023-01-12T06:37:46.602Z,2.90
2023-01-12T06:40:15.086Z,2.80
2023-01-12T06:42:44.439Z,2.90
2023-01-12T06:45:12.702Z,2.90
2023-01-12T06:47:48.679Z,3.00
2023-01-12T06:50:17.465Z,3.00
2023-01-12T06:52:45.553Z,3.10
2023-01-12T06:55:13.694Z,3.10
2023-01-12T06:57:41.888Z,3.30
2023-01-12T07:00:15.966Z,3.40
2023-01-12T07:02:44.156Z,3.50
2023-01-12T07:05:12.225Z,3.70
2023-01-12T07:07:40.731Z,4.00
2023-01-12T07:10:09.840Z,3.80
2023-01-12T07:12:38.032Z,4.10
2023-01-12T07:15:06.878Z,4.30
2023-01-12T07:17:36.332Z,4.30
2023-01-12T07:20:04.742Z,4.30
2023-01-12T07:22:32.898Z,4.70
2023-01-12T07:25:01.183Z,4.60
2023-01-12T07:27:29.343Z,4.90
2023-01-12T07:29:57.378Z,4.70
2023-01-12T07:32:29.565Z,5.10
2023-01-12T07:34:59.081Z,5.10
2023-01-12T07:37:27.172Z,5.30
2023-01-12T07:39:57.084Z,5.20
2023-01-12T07:42:26.510Z,5.10
2023-01-12T07:44:54.853Z,5.30
2023-01-12T07:47:23.182Z,5.30
2023-01-12T07:49:51.709Z,5.30
2023-01-12T07:52:21.263Z,5.30
2023-01-12T07:54:49.435Z,5.30
2023-01-12T07:57:18.363Z,5.50
2023-01-12T07:59:46.414Z,5.40
2023-01-12T08:02:17.123Z,5.30
2023-01-12T08:04:45.626Z,5.50
2023-01-12T08:07:14.822Z,5.40
2023-01-12T08:09:44.446Z,5.40
2023-01-12T08:12:12.628Z,5.60
2023-01-12T08:14:42.535Z,5.50
2023-01-12T08:17:15.289Z,5.30
2023-01-12T08:19:47.173Z,5.40
2023-01-12T08:22:21.360Z,5.70
2023-01-12T08:24:55.958Z,5.90
2023-01-12T08:27:26.583Z,5.50
2023-01-12T08:29:58.533Z,5.50
2023-01-12T08:32:29.198Z,5.60
2023-01-12T08:35:02.223Z,5.70
2023-01-12T08:37:31.944Z,5.80
2023-01-12T08:40:01.725Z,5.90
2023-01-12T08:42:31.959Z,6.00
2023-01-12T08:45:00.179Z,6.30
2023-01-12T08:47:30.525Z,6.20
2023-01-12T08:50:00.447Z,6.50
2023-01-12T08:52:31.704Z,6.50
2023-01-12T08:55:01.304Z,6.50
2023-01-12T08:57:30.094Z,6.50
2023-01-12T08:59:58.292Z,6.60
2023-01-12T09:02:27.145Z,6.50
2023-01-12T09:04:55.682Z,6.10
2023-01-12T09:07:23.829Z,5.50
2023-01-12T09:09:51.999Z,5.50
2023-01-12T09:12:23.606Z,5.50
2023-01-12T09:14:53.847Z,5.50
2023-01-12T09:17:24.102Z,5.50
2023-01-12T09:19:52.212Z,5.50
2023-01-12T09:22:20.327Z,5.40
2023-01-12T09:24:48.593Z,5.50
2023-01-12T09:27:16.679Z,5.50
2023-01-12T09:29:46.133Z,5.60
2023-01-12T09:32:14.843Z,5.70
2023-01-12T09:34:43.727Z,5.60
2023-01-12T09:37:11.819Z,5.60
2023-01-12T09:39:39.937Z,5.60
2023-01-12T09:42:36.672Z,5.60
2023-01-12T09:45:35.984Z,5.60
2023-01-12T09:48:04.641Z,5.70
2023-01-12T09:50:36.727Z,5.70
2023-01-12T09:53:08.649Z,5.70
2023-01-12T09:55:43.073Z,5.70
2023-01-12T09:58:31.327Z,5.80
2023-01-12T10:01:10.627Z,5.80
2023-01-12T10:03:43.762Z,6.00
2023-01-12T10:06:16.668Z,6.00
2023-01-12T10:08:47.756Z,6.10
2023-01-12T10:11:20.334Z,6.10
2023-01-12T10:14:12.666Z,6.10
2023-01-12T10:16:55.610Z,6.20
2023-01-12T10:19:28.873Z,6.40
2023-01-12T10:21:57.566Z,6.50
2023-01-12T10:24:27.130Z,6.60
2023-01-12T10:27:02.132Z,6.60
2023-01-12T10:29:31.915Z,6.60
2023-01-12T10:32:01.667Z,6.60
2023-01-12T10:34:30.601Z,6.60
2023-01-12T10:37:10.465Z,6.70
2023-01-12T10:39:40.020Z,7.10
2023-01-12T10:42:38.051Z,7.40
2023-01-12T10:45:17.861Z,7.50
2023-01-12T10:47:48.945Z,7.50
2023-01-12T10:50:26.292Z,7.50
2023-01-12T10:53:02.520Z,7.50
2023-01-12T10:55:33.538Z,7.50
2023-01-12T10:58:02.386Z,7.60
2023-01-12T11:00:31.045Z,7.60
2023-01-12T11:03:00.540Z,7.60
2023-01-12T11:05:36.890Z,7.60
2023-01-12T11:08:20.238Z,7.70
2023-01-12T11:10:48.449Z,7.80
2023-01-12T11:13:27.242Z,7.90
2023-01-12T11:16:06.483Z,7.90
2023-01-12T11:18:42.057Z,8.00
2023-01-12T11:21:13.688Z,8.00
2023-01-12T11:23:52.044Z,8.00
2023-01-12T11:26:25.145Z,8.10
2023-01-12T11:28:57.791Z,8.20
2023-01-12T11:31:29.655Z,8.20
2023-01-12T11:34:03.816Z,8.20
2023-01-12T11:36:35.724Z,8.20
2023-01-12T11:39:07.077Z,8.20
2023-01-12T11:41:40.313Z,8.30
2023-01-12T11:44:18.173Z,8.30
2023-01-12T11:46:49.370Z,8.40
2023-01-12T11:49:23.870Z,8.40
2023-01-12T11:51:57.054Z,8.50
2023-01-12T11:54:27.201Z,8.50
2023-01-12T11:57:12.043Z,8.70
2023-01-12T11:59:51.061Z,8.80
2023-01-12T12:02:32.989Z,8.70
2023-01-12T12:05:14.132Z,8.80
2023-01-12T12:07:55.740Z,8.90
2023-01-12T12:10:27.767Z,8.80
2023-01-12T12:13:28.071Z,8.80
2023-01-12T12:16:11.558Z,8.80
2023-01-12T12:18:51.660Z,8.70
2023-01-12T12:21:46.931Z,8.70
2023-01-12T12:24:34.294Z,8.70
2023-01-12T12:27:11.759Z,8.70
2023-01-12T12:30:01.787Z,8.70
2023-01-12T12:32:37.539Z,8.70
2023-01-12T12:35:28.598Z,8.70
2023-01-12T12:38:14.027Z,8.70
2023-01-12T12:41:12.408Z,8.60
2023-01-12T12:43:58.404Z,8.50
2023-01-12T12:46:40.864Z,8.70
2023-01-12T12:49:12.902Z,8.60
2023-01-12T12:51:42.863Z,8.70
2023-01-12T12:54:18.625Z,8.60
2023-01-12T12:56:48.323Z,8.60
2023-01-12T12:59:59.654Z,8.60
2023-01-12T13:02:39.862Z,8.70
2023-01-12T13:05:09.988Z,8.70
2023-01-12T13:07:43.397Z,8.70
2023-01-12T13:10:23.429Z,8.50
2023-01-12T13:13:05.917Z,8.60
2023-01-12T13:15:37.560Z,8.70
2023-01-12T13:18:07.129Z,8.70
2023-01-12T13:21:02.271Z,8.70
2023-01-12T13:24:18.365Z,8.70
2023-01-12T13:26:52.301Z,8.60
2023-01-12T13:29:50.744Z,8.60
2023-01-12T13:32:43.520Z,8.70
2023-01-12T13:35:30.013Z,8.70
2023-01-12T13:38:08.775Z,8.70
2023-01-12T13:40:37.321Z,8.60
2023-01-12T13:43:17.051Z,8.60
2023-01-12T13:45:50.500Z,8.60
2023-01-12T13:48:20.113Z,8.40
2023-01-12T13:50:51.460Z,8.50
2023-01-12T13:53:28.396Z,8.50
2023-01-12T13:55:59.273Z,8.50
2023-01-12T13:58:29.536Z,8.50
2023-01-12T14:01:00.574Z,8.60
2023-01-12T14:03:51.179Z,8.60
2023-01-12T14:06:29.043Z,8.70
2023-01-12T14:09:09.882Z,8.80
2023-01-12T14:11:50.404Z,8.70
2023-01-12T14:14:51.926Z,8.60
2023-01-12T14:17:44.607Z,8.50
2023-01-12T14:20:17.588Z,8.30
2023-01-12T14:22:46.188Z,8.30
2023-01-12T14:25:20.558Z,8.50
2023-01-12T14:27:53.317Z,8.50
2023-01-12T14:30:24.498Z,8.30
2023-01-12T14:32:53.731Z,8.40
2023-01-12T14:35:25.480Z,8.30
2023-01-12T14:37:57.839Z,8.30
2023-01-12T14:40:30.970Z,8.30
2023-01-12T14:43:31.635Z,8.20
2023-01-12T14:46:20.917Z,8.10
2023-01-12T14:48:57.293Z,8.20
2023-01-12T14:51:27.738Z,8.00
2023-01-12T14:54:01.324Z,8.00
2023-01-12T14:56:36.172Z,7.80
2023-01-12T14:59:09.796Z,8.00
2023-01-12T15:01:40.479Z,7.90
2023-01-12T15:04:17.228Z,7.90
2023-01-12T15:06:47.224Z,7.80
2023-01-12T15:09:28.189Z,7.80
2023-01-12T15:11:57.439Z,7.90
2023-01-12T15:14:27.147Z,7.90
2023-01-12T15:17:14.871Z,7.90
2023-01-12T15:20:00.741Z,7.70
2023-01-12T15:22:47.754Z,7.90
2023-01-12T15:25:35.592Z,7.80
2023-01-12T15:28:06.064Z,7.70
2023-01-12T15:30:39.259Z,7.60
2023-01-12T15:33:10.180Z,7.60
2023-01-12T15:35:44.534Z,7.70
2023-01-12T15:38:14.423Z,7.70
2023-01-12T15:40:42.879Z,7.70
2023-01-12T15:43:14.728Z,7.90
2023-01-12T15:45:44.519Z,7.80
2023-01-12T15:48:14.223Z,7.60
2023-01-12T15:50:44.080Z,7.50
2023-01-12T15:53:15.193Z,7.60
2023-01-12T15:55:43.357Z,7.40
2023-01-12T15:58:11.791Z,7.50
2023-01-12T16:00:40.268Z,7.60
2023-01-12T16:03:28.939Z,7.70
2023-01-12T16:06:02.095Z,7.70
2023-01-12T16:08:30.317Z,7.70
2023-01-12T16:11:13.368Z,7.70
2023-01-12T16:13:42.396Z,7.70
2023-01-12T16:16:15.836Z,7.80
2023-01-12T16:18:45.694Z,7.70
2023-01-12T16:21:17.131Z,7.60
2023-01-12T16:23:45.821Z,7.60
2023-01-12T16:26:13.917Z,7.70
2023-01-12T16:28:42.064Z,7.70
2023-01-12T16:31:12.914Z,7.60
2023-01-12T16:33:42.731Z,7.70
2023-01-12T16:36:14.333Z,7.70
2023-01-12T16:38:42.847Z,7.70
2023-01-12T16:41:12.503Z,7.60
2023-01-12T16:43:40.857Z,7.80
2023-01-12T16:46:09.077Z,7.90
2023-01-12T16:48:39.438Z,7.60
2023-01-12T16:51:12.788Z,7.60
2023-01-12T16:53:41.831Z,7.60
2023-01-12T16:56:12.268Z,7.60
2023-01-12T16:58:41.900Z,7.50
2023-01-12T17:01:12.421Z,7.40
2023-01-12T17:03:42.276Z,7.50
2023-01-12T17:06:15.073Z,7.50
2023-01-12T17:08:43.866Z,7.30
2023-01-12T17:11:13.979Z,7.50
2023-01-12T17:13:42.740Z,7.30
2023-01-12T17:16:12.301Z,7.40
2023-01-12T17:18:40.953Z,7.50
2023-01-12T17:21:13.296Z,7.30
2023-01-12T17:23:42.821Z,7.50
2023-01-12T17:26:14.429Z,7.60
2023-01-12T17:28:42.957Z,7.50
2023-01-12T17:31:13.276Z,7.40
2023-01-12T17:33:42.250Z,7.70
2023-01-12T17:36:13.481Z,7.60
2023-01-12T17:38:41.645Z,7.50
2023-01-12T17:41:30.642Z,7.40
2023-01-12T17:43:58.310Z,7.30
2023-01-12T17:46:26.751Z,7.30
2023-01-12T17:48:55.172Z,7.50
2023-01-12T17:51:24.881Z,7.40
2023-01-12T17:53:54.794Z,7.30
2023-01-12T17:56:23.115Z,7.20
2023-01-12T17:58:51.557Z,7.40
2023-01-12T18:01:20.532Z,7.10
2023-01-12T18:03:48.870Z,7.50
2023-01-12T18:06:25.777Z,7.40
2023-01-12T18:08:57.380Z,7.30
2023-01-12T18:11:26.486Z,7.00
2023-01-12T18:13:55.151Z,7.10
2023-01-12T18:16:23.522Z,7.10
2023-01-12T18:18:52.898Z,7.10
2023-01-12T18:21:23.417Z,7.00
2023-01-12T18:23:52.958Z,7.00
2023-01-12T18:26:25.290Z,7.00
2023-01-12T18:28:53.771Z,7.20
2023-01-12T18:31:23.962Z,7.00
2023-01-12T18:33:52.767Z,7.00
2023-01-12T18:36:22.588Z,7.00
2023-01-12T18:38:51.932Z,6.90
2023-01-12T18:41:40.163Z,7.10
2023-01-12T18:44:09.348Z,7.00
2023-01-12T18:47:00.075Z,7.00
2023-01-12T18:49:30.438Z,7.00
2023-01-12T18:52:16.807Z,7.10
2023-01-12T18:54:47.370Z,7.30
2023-01-12T18:57:18.363Z,7.40
2023-01-12T18:59:47.202Z,7.10
2023-01-12T19:02:16.803Z,7.10
2023-01-12T19:05:04.463Z,7.30
2023-01-12T19:07:39.540Z,7.10
2023-01-12T19:10:07.791Z,7.10
2023-01-12T19:12:37.661Z,7.00
2023-01-12T19:15:24.023Z,7.00
2023-01-12T19:17:52.340Z,6.90
2023-01-12T19:20:21.156Z,7.00
2023-01-12T19:23:09.526Z,7.00
2023-01-12T19:26:04.219Z,7.00
2023-01-12T19:28:35.845Z,6.90
2023-01-12T19:31:07.307Z,7.10
2023-01-12T19:33:35.769Z,6.90
2023-01-12T19:36:07.908Z,7.00
2023-01-12T19:38:37.159Z,6.90
2023-01-12T19:41:12.332Z,6.90
2023-01-12T19:43:45.531Z,6.90
2023-01-12T19:46:14.585Z,6.70
2023-01-12T19:48:43.086Z,6.90
2023-01-12T19:51:11.856Z,6.80
2023-01-12T19:53:40.996Z,6.50
2023-01-12T19:56:11.339Z,6.30
2023-01-12T19:58:42.315Z,6.20
2023-01-12T20:01:10.601Z,6.10
2023-01-12T20:03:41.747Z,6.00
2023-01-12T20:06:10.542Z,5.90
2023-01-12T20:08:38.856Z,5.80
2023-01-12T20:11:08.241Z,5.90
2023-01-12T20:13:37.000Z,5.80
2023-01-12T20:16:09.291Z,5.70
2023-01-12T20:18:37.698Z,5.60
2023-01-12T20:21:09.828Z,5.70
2023-01-12T20:23:38.366Z,5.60
2023-01-12T20:26:08.897Z,5.50
2023-01-12T20:28:37.759Z,5.40
2023-01-12T20:31:11.726Z,5.20
2023-01-12T20:33:40.560Z,5.30
2023-01-12T20:36:12.360Z,5.30
2023-01-12T20:38:41.082Z,5.30
2023-01-12T20:41:10.055Z,5.00
2023-01-12T20:43:38.641Z,4.80
2023-01-12T20:46:10.392Z,4.70
2023-01-12T20:48:40.644Z,4.70
2023-01-12T20:51:09.130Z,4.70
2023-01-12T20:53:37.815Z,4.60
2023-01-12T20:56:07.308Z,4.50
2023-01-12T20:58:36.499Z,4.60
2023-01-12T21:01:10.935Z,4.60
2023-01-12T21:03:40.198Z,4.60
2023-01-12T21:06:12.491Z,4.20
2023-01-12T21:08:43.170Z,4.20
2023-01-12T21:11:12.412Z,4.40
2023-01-12T21:13:40.781Z,4.50
2023-01-12T21:16:14.749Z,4.40
2023-01-12T21:18:44.488Z,4.50
2023-01-12T21:21:13.388Z,4.40
2023-01-12T21:23:41.681Z,4.50
2023-01-12T21:26:11.222Z,4.70
2023-01-12T21:28:40.752Z,4.90
2023-01-12T21:31:13.201Z,5.00
2023-01-12T21:33:41.748Z,4.90
2023-01-12T21:36:12.388Z,5.00
2023-01-12T21:38:41.495Z,4.80
2023-01-12T21:41:12.177Z,4.60
2023-01-12T21:43:39.809Z,4.60
2023-01-12T21:46:11.223Z,4.60
2023-01-12T21:48:39.589Z,4.50
2023-01-12T21:51:09.496Z,4.60
2023-01-12T21:53:37.587Z,4.50
2023-01-12T21:56:06.893Z,4.40
2023-01-12T21:58:37.283Z,4.60
2023-01-12T22:01:12.404Z,4.60
2023-01-12T22:03:41.468Z,4.60
2023-01-12T22:06:11.599Z,4.60
2023-01-12T22:08:41.837Z,4.60
2023-01-12T22:11:11.815Z,4.70
2023-01-12T22:13:40.903Z,4.50
2023-01-12T22:16:12.490Z,4.50
2023-01-12T22:18:44.498Z,4.50
2023-01-12T22:21:12.792Z,4.40
2023-01-12T22:23:42.133Z,4.30
2023-01-12T22:26:13.421Z,4.20
2023-01-12T22:28:43.673Z,4.10
2023-01-12T22:31:15.282Z,4.20
2023-01-12T22:33:46.463Z,4.20
2023-01-12T22:36:14.840Z,4.30
2023-01-12T22:38:43.167Z,4.40
2023-01-12T22:41:12.729Z,4.40
2023-01-12T22:43:40.898Z,4.30
2023-01-12T22:46:18.427Z,4.30
2023-01-12T22:48:49.826Z,4.30
2023-01-12T22:51:18.227Z,4.40
2023-01-12T22:53:46.402Z,4.40
2023-01-12T22:56:14.875Z,4.40
2023-01-12T22:58:47.687Z,4.30
2023-01-12T23:01:18.785Z,4.30
2023-01-12T23:03:48.230Z,4.30
2023-01-12T23:06:18.125Z,4.30
2023-01-12T23:08:46.838Z,4.50
2023-01-12T23:11:16.858Z,4.30
2023-01-12T23:13:46.344Z,4.30
2023-01-12T23:16:18.672Z,4.40
2023-01-12T23:18:49.920Z,4.50
2023-01-12T23:21:20.237Z,4.60
2023-01-12T23:23:50.106Z,4.60
2023-01-12T23:26:20.981Z,4.50
2023-01-12T23:28:51.959Z,4.40
2023-01-12T23:31:23.636Z,4.40
2023-01-12T23:33:52.728Z,4.30
2023-01-12T23:36:22.439Z,4.40
2023-01-12T23:38:54.157Z,4.50
2023-01-12T23:41:24.544Z,4.50
2023-01-12T23:43:56.150Z,4.50
2023-01-12T23:46:26.121Z,4.50
2023-01-12T23:48:55.581Z,4.60
2023-01-12T23:51:24.906Z,4.60
2023-01-12T23:53:53.521Z,4.60
2023-01-12T23:56:22.112Z,4.60
2023-01-12T23:58:50.230Z,4.70
